sensor_id;sensor_type;location;lat;lon;timestamp;P1;durP1;ratioP1;P2;durP2;ratioP2
42514;SDS011;28144;49.920;18.730;2023-12-28T00:00:20;99.10;;;35.73;;
42514;SDS011;28144;49.920;18.730;2023-12-28T00:03:06;92.97;;;32.92;;
42514;SDS011;28144;49.920;18.730;2023-12-28T00:05:31;98.10;;;33.77;;
42514;SDS011;28144;49.920;18.730;2023-12-28T00:07:57;87.33;;;32.30;;
42514;SDS011;28144;49.920;18.730;2023-12-28T00:10:26;85.83;;;31.67;;
42514;SDS011;28144;49.920;18.730;2023-12-28T00:12:53;92.30;;;31.77;;
42514;SDS011;28144;49.920;18.730;2023-12-28T00:15:19;89.82;;;31.05;;
42514;SDS011;28144;49.920;18.730;2023-12-28T00:17:45;95.27;;;34.23;;
42514;SDS011;28144;49.920;18.730;2023-12-28T00:20:10;93.37;;;35.20;;
42514;SDS011;28144;49.920;18.730;2023-12-28T00:22:37;89.20;;;31.83;;
42514;SDS011;28144;49.920;18.730;2023-12-28T00:25:03;69.73;;;29.90;;
42514;SDS011;28144;49.920;18.730;2023-12-28T00:27:29;74.60;;;30.07;;
42514;SDS011;28144;49.920;18.730;2023-12-28T00:29:55;76.43;;;31.17;;
42514;SDS011;28144;49.920;18.730;2023-12-28T00:32:21;93.50;;;35.40;;
42514;SDS011;28144;49.920;18.730;2023-12-28T00:34:47;80.10;;;30.93;;
42514;SDS011;28144;49.920;18.730;2023-12-28T00:37:12;97.63;;;34.57;;
42514;SDS011;28144;49.920;18.730;2023-12-28T00:39:38;92.33;;;36.00;;
42514;SDS011;28144;49.920;18.730;2023-12-28T00:42:06;105.17;;;39.83;;
42514;SDS011;28144;49.920;18.730;2023-12-28T00:44:32;94.23;;;34.27;;
42514;SDS011;28144;49.920;18.730;2023-12-28T00:46:58;86.00;;;33.47;;
42514;SDS011;28144;49.920;18.730;2023-12-28T00:49:23;97.40;;;37.00;;
42514;SDS011;28144;49.920;18.730;2023-12-28T00:51:49;108.00;;;37.67;;
42514;SDS011;28144;49.920;18.730;2023-12-28T00:54:15;107.73;;;46.27;;
42514;SDS011;28144;49.920;18.730;2023-12-28T00:56:40;193.30;;;61.77;;
42514;SDS011;28144;49.920;18.730;2023-12-28T00:59:06;132.43;;;46.67;;
42514;SDS011;28144;49.920;18.730;2023-12-28T01:01:32;96.07;;;36.67;;
42514;SDS011;28144;49.920;18.730;2023-12-28T01:03:58;82.07;;;30.70;;
42514;SDS011;28144;49.920;18.730;2023-12-28T01:06:24;92.85;;;33.45;;
42514;SDS011;28144;49.920;18.730;2023-12-28T01:08:56;87.23;;;34.13;;
42514;SDS011;28144;49.920;18.730;2023-12-28T01:11:22;86.67;;;33.00;;
42514;SDS011;28144;49.920;18.730;2023-12-28T01:13:48;81.67;;;30.63;;
42514;SDS011;28144;49.920;18.730;2023-12-28T01:16:14;94.57;;;34.17;;
42514;SDS011;28144;49.920;18.730;2023-12-28T01:18:39;88.43;;;34.10;;
42514;SDS011;28144;49.920;18.730;2023-12-28T01:21:05;97.03;;;35.03;;
42514;SDS011;28144;49.920;18.730;2023-12-28T01:23:31;106.87;;;38.50;;
42514;SDS011;28144;49.920;18.730;2023-12-28T01:25:57;105.50;;;38.33;;
42514;SDS011;28144;49.920;18.730;2023-12-28T01:28:24;104.93;;;36.17;;
42514;SDS011;28144;49.920;18.730;2023-12-28T01:30:50;83.10;;;31.27;;
42514;SDS011;28144;49.920;18.730;2023-12-28T01:33:15;74.53;;;28.27;;
42514;SDS011;28144;49.920;18.730;2023-12-28T01:35:41;61.17;;;24.87;;
42514;SDS011;28144;49.920;18.730;2023-12-28T01:38:07;60.20;;;24.33;;
42514;SDS011;28144;49.920;18.730;2023-12-28T01:40:33;68.20;;;25.20;;
42514;SDS011;28144;49.920;18.730;2023-12-28T01:42:58;62.20;;;21.57;;
42514;SDS011;28144;49.920;18.730;2023-12-28T01:45:24;62.93;;;21.83;;
42514;SDS011;28144;49.920;18.730;2023-12-28T01:47:50;64.80;;;22.83;;
42514;SDS011;28144;49.920;18.730;2023-12-28T01:50:18;60.93;;;22.40;;
42514;SDS011;28144;49.920;18.730;2023-12-28T01:52:44;64.27;;;22.53;;
42514;SDS011;28144;49.920;18.730;2023-12-28T01:55:10;55.95;;;19.63;;
42514;SDS011;28144;49.920;18.730;2023-12-28T01:57:36;51.73;;;18.77;;
42514;SDS011;28144;49.920;18.730;2023-12-28T02:00:03;46.83;;;17.60;;
42514;SDS011;28144;49.920;18.730;2023-12-28T02:02:30;42.83;;;15.65;;
42514;SDS011;28144;49.920;18.730;2023-12-28T02:04:56;38.47;;;14.83;;
42514;SDS011;28144;49.920;18.730;2023-12-28T02:07:22;29.60;;;12.67;;
42514;SDS011;28144;49.920;18.730;2023-12-28T02:09:49;39.10;;;13.63;;
42514;SDS011;28144;49.920;18.730;2023-12-28T02:12:15;34.13;;;13.60;;
42514;SDS011;28144;49.920;18.730;2023-12-28T02:14:41;41.70;;;13.80;;
42514;SDS011;28144;49.920;18.730;2023-12-28T02:17:10;37.87;;;15.00;;
42514;SDS011;28144;49.920;18.730;2023-12-28T02:19:51;37.03;;;13.70;;
42514;SDS011;28144;49.920;18.730;2023-12-28T02:22:18;37.47;;;14.63;;
42514;SDS011;28144;49.920;18.730;2023-12-28T02:27:28;32.53;;;13.03;;
42514;SDS011;28144;49.920;18.730;2023-12-28T02:29:55;36.93;;;14.20;;
42514;SDS011;28144;49.920;18.730;2023-12-28T02:32:22;37.45;;;15.35;;
42514;SDS011;28144;49.920;18.730;2023-12-28T02:34:53;41.00;;;16.73;;
42514;SDS011;28144;49.920;18.730;2023-12-28T02:37:23;39.87;;;17.43;;
42514;SDS011;28144;49.920;18.730;2023-12-28T02:39:50;44.00;;;18.83;;
42514;SDS011;28144;49.920;18.730;2023-12-28T02:42:16;48.13;;;17.35;;
42514;SDS011;28144;49.920;18.730;2023-12-28T02:44:43;46.90;;;17.70;;
42514;SDS011;28144;49.920;18.730;2023-12-28T02:47:08;42.63;;;17.37;;
42514;SDS011;28144;49.920;18.730;2023-12-28T02:49:34;43.20;;;19.50;;
42514;SDS011;28144;49.920;18.730;2023-12-28T02:52:00;40.73;;;15.97;;
42514;SDS011;28144;49.920;18.730;2023-12-28T02:54:26;33.30;;;14.27;;
42514;SDS011;28144;49.920;18.730;2023-12-28T02:56:51;40.50;;;16.13;;
42514;SDS011;28144;49.920;18.730;2023-12-28T02:59:17;47.70;;;18.93;;
42514;SDS011;28144;49.920;18.730;2023-12-28T03:01:42;37.73;;;16.57;;
42514;SDS011;28144;49.920;18.730;2023-12-28T03:04:08;41.53;;;18.67;;
42514;SDS011;28144;49.920;18.730;2023-12-28T03:06:34;59.00;;;20.90;;
42514;SDS011;28144;49.920;18.730;2023-12-28T03:09:00;63.53;;;20.48;;
42514;SDS011;28144;49.920;18.730;2023-12-28T03:11:26;44.70;;;18.83;;
42514;SDS011;28144;49.920;18.730;2023-12-28T03:13:52;38.30;;;16.10;;
42514;SDS011;28144;49.920;18.730;2023-12-28T03:16:17;39.17;;;16.57;;
42514;SDS011;28144;49.920;18.730;2023-12-28T03:18:44;37.15;;;15.02;;
42514;SDS011;28144;49.920;18.730;2023-12-28T03:21:09;36.30;;;15.67;;
42514;SDS011;28144;49.920;18.730;2023-12-28T03:23:35;39.03;;;16.50;;
42514;SDS011;28144;49.920;18.730;2023-12-28T03:26:00;32.20;;;13.63;;
42514;SDS011;28144;49.920;18.730;2023-12-28T03:28:26;34.37;;;14.23;;
42514;SDS011;28144;49.920;18.730;2023-12-28T03:30:52;32.70;;;13.73;;
42514;SDS011;28144;49.920;18.730;2023-12-28T03:33:18;27.57;;;11.80;;
42514;SDS011;28144;49.920;18.730;2023-12-28T03:35:43;32.83;;;12.83;;
42514;SDS011;28144;49.920;18.730;2023-12-28T03:38:09;23.67;;;11.13;;
42514;SDS011;28144;49.920;18.730;2023-12-28T03:40:34;20.33;;;10.07;;
42514;SDS011;28144;49.920;18.730;2023-12-28T03:43:00;14.83;;;7.17;;
42514;SDS011;28144;49.920;18.730;2023-12-28T03:45:26;12.93;;;6.90;;
42514;SDS011;28144;49.920;18.730;2023-12-28T03:47:51;12.33;;;5.97;;
42514;SDS011;28144;49.920;18.730;2023-12-28T03:50:17;14.43;;;5.80;;
42514;SDS011;28144;49.920;18.730;2023-12-28T03:52:43;15.43;;;5.53;;
42514;SDS011;28144;49.920;18.730;2023-12-28T03:55:09;8.93;;;4.83;;
42514;SDS011;28144;49.920;18.730;2023-12-28T03:57:35;10.97;;;5.60;;
42514;SDS011;28144;49.920;18.730;2023-12-28T04:00:00;10.00;;;4.93;;
42514;SDS011;28144;49.920;18.730;2023-12-28T04:02:26;9.37;;;4.83;;
42514;SDS011;28144;49.920;18.730;2023-12-28T04:04:55;8.63;;;4.83;;
42514;SDS011;28144;49.920;18.730;2023-12-28T04:07:24;10.07;;;5.17;;
42514;SDS011;28144;49.920;18.730;2023-12-28T04:09:49;15.20;;;6.07;;
42514;SDS011;28144;49.920;18.730;2023-12-28T04:12:15;9.63;;;4.83;;
42514;SDS011;28144;49.920;18.730;2023-12-28T04:14:41;9.57;;;5.50;;
42514;SDS011;28144;49.920;18.730;2023-12-28T04:17:06;12.77;;;5.90;;
42514;SDS011;28144;49.920;18.730;2023-12-28T04:19:32;11.33;;;5.70;;
42514;SDS011;28144;49.920;18.730;2023-12-28T04:21:58;11.23;;;6.20;;
42514;SDS011;28144;49.920;18.730;2023-12-28T04:24:23;9.43;;;6.20;;
42514;SDS011;28144;49.920;18.730;2023-12-28T04:26:49;13.97;;;6.33;;
42514;SDS011;28144;49.920;18.730;2023-12-28T04:29:15;13.17;;;6.47;;
42514;SDS011;28144;49.920;18.730;2023-12-28T04:31:40;13.00;;;6.53;;
42514;SDS011;28144;49.920;18.730;2023-12-28T04:34:07;18.67;;;6.80;;
42514;SDS011;28144;49.920;18.730;2023-12-28T04:36:39;17.27;;;8.00;;
42514;SDS011;28144;49.920;18.730;2023-12-28T04:39:06;15.20;;;6.90;;
42514;SDS011;28144;49.920;18.730;2023-12-28T04:41:31;16.60;;;8.03;;
42514;SDS011;28144;49.920;18.730;2023-12-28T04:43:57;15.30;;;7.87;;
42514;SDS011;28144;49.920;18.730;2023-12-28T04:46:23;17.07;;;8.70;;
42514;SDS011;28144;49.920;18.730;2023-12-28T04:48:48;21.37;;;8.73;;
42514;SDS011;28144;49.920;18.730;2023-12-28T04:51:14;14.97;;;7.67;;
42514;SDS011;28144;49.920;18.730;2023-12-28T04:53:40;16.07;;;8.40;;
42514;SDS011;28144;49.920;18.730;2023-12-28T04:56:06;21.47;;;8.73;;
42514;SDS011;28144;49.920;18.730;2023-12-28T04:58:31;16.53;;;9.97;;
42514;SDS011;28144;49.920;18.730;2023-12-28T05:00:57;16.77;;;8.40;;
42514;SDS011;28144;49.920;18.730;2023-12-28T05:03:23;24.50;;;10.03;;
42514;SDS011;28144;49.920;18.730;2023-12-28T05:05:49;17.77;;;7.93;;
42514;SDS011;28144;49.920;18.730;2023-12-28T05:08:15;17.90;;;8.63;;
42514;SDS011;28144;49.920;18.730;2023-12-28T05:10:41;22.67;;;8.57;;
42514;SDS011;28144;49.920;18.730;2023-12-28T05:13:06;18.03;;;10.63;;
42514;SDS011;28144;49.920;18.730;2023-12-28T05:15:32;44.10;;;17.00;;
42514;SDS011;28144;49.920;18.730;2023-12-28T05:17:58;36.47;;;15.60;;
42514;SDS011;28144;49.920;18.730;2023-12-28T05:20:24;36.63;;;15.60;;
42514;SDS011;28144;49.920;18.730;2023-12-28T05:22:49;39.13;;;15.17;;
42514;SDS011;28144;49.920;18.730;2023-12-28T05:25:15;35.60;;;15.27;;
42514;SDS011;28144;49.920;18.730;2023-12-28T05:27:41;38.63;;;17.57;;
42514;SDS011;28144;49.920;18.730;2023-12-28T05:30:08;31.85;;;14.23;;
42514;SDS011;28144;49.920;18.730;2023-12-28T05:32:34;33.33;;;13.70;;
42514;SDS011;28144;49.920;18.730;2023-12-28T05:35:00;22.85;;;11.70;;
42514;SDS011;28144;49.920;18.730;2023-12-28T05:37:26;21.97;;;12.20;;
42514;SDS011;28144;49.920;18.730;2023-12-28T05:39:52;23.57;;;11.50;;
42514;SDS011;28144;49.920;18.730;2023-12-28T05:42:17;30.47;;;12.43;;
42514;SDS011;28144;49.920;18.730;2023-12-28T05:44:43;25.87;;;12.20;;
42514;SDS011;28144;49.920;18.730;2023-12-28T05:47:09;30.67;;;13.00;;
42514;SDS011;28144;49.920;18.730;2023-12-28T05:49:36;29.23;;;13.93;;
42514;SDS011;28144;49.920;18.730;2023-12-28T05:54:28;23.85;;;12.57;;
42514;SDS011;28144;49.920;18.730;2023-12-28T05:56:54;29.23;;;14.20;;
42514;SDS011;28144;49.920;18.730;2023-12-28T05:59:19;26.97;;;15.70;;
42514;SDS011;28144;49.920;18.730;2023-12-28T06:01:46;31.83;;;14.55;;
42514;SDS011;28144;49.920;18.730;2023-12-28T06:04:13;22.10;;;12.75;;
42514;SDS011;28144;49.920;18.730;2023-12-28T06:06:38;34.30;;;14.00;;
42514;SDS011;28144;49.920;18.730;2023-12-28T06:09:04;27.90;;;13.60;;
42514;SDS011;28144;49.920;18.730;2023-12-28T06:11:30;31.13;;;13.50;;
42514;SDS011;28144;49.920;18.730;2023-12-28T06:13:56;29.63;;;15.07;;
42514;SDS011;28144;49.920;18.730;2023-12-28T06:16:21;28.70;;;13.07;;
42514;SDS011;28144;49.920;18.730;2023-12-28T06:18:47;23.10;;;11.23;;
42514;SDS011;28144;49.920;18.730;2023-12-28T06:21:12;28.70;;;12.73;;
42514;SDS011;28144;49.920;18.730;2023-12-28T06:23:38;35.20;;;16.17;;
42514;SDS011;28144;49.920;18.730;2023-12-28T06:26:04;31.27;;;18.13;;
42514;SDS011;28144;49.920;18.730;2023-12-28T06:28:32;36.27;;;22.03;;
42514;SDS011;28144;49.920;18.730;2023-12-28T06:30:58;42.90;;;21.60;;
42514;SDS011;28144;49.920;18.730;2023-12-28T06:33:27;31.13;;;15.97;;
42514;SDS011;28144;49.920;18.730;2023-12-28T06:35:53;35.40;;;17.30;;
42514;SDS011;28144;49.920;18.730;2023-12-28T06:38:19;34.13;;;16.90;;
42514;SDS011;28144;49.920;18.730;2023-12-28T06:40:45;37.10;;;17.23;;
42514;SDS011;28144;49.920;18.730;2023-12-28T06:43:11;28.23;;;13.60;;
42514;SDS011;28144;49.920;18.730;2023-12-28T06:45:37;44.30;;;13.70;;
42514;SDS011;28144;49.920;18.730;2023-12-28T06:48:03;29.93;;;14.33;;
42514;SDS011;28144;49.920;18.730;2023-12-28T06:50:28;24.93;;;13.20;;
42514;SDS011;28144;49.920;18.730;2023-12-28T06:52:54;37.67;;;17.83;;
42514;SDS011;28144;49.920;18.730;2023-12-28T06:55:20;46.63;;;19.77;;
42514;SDS011;28144;49.920;18.730;2023-12-28T06:57:45;44.37;;;19.93;;
42514;SDS011;28144;49.920;18.730;2023-12-28T07:00:11;41.33;;;16.23;;
42514;SDS011;28144;49.920;18.730;2023-12-28T07:02:37;47.65;;;19.75;;
42514;SDS011;28144;49.920;18.730;2023-12-28T07:05:03;34.73;;;16.10;;
42514;SDS011;28144;49.920;18.730;2023-12-28T07:07:30;64.25;;;42.50;;
42514;SDS011;28144;49.920;18.730;2023-12-28T07:09:55;73.67;;;42.63;;
42514;SDS011;28144;49.920;18.730;2023-12-28T07:12:21;61.00;;;35.47;;
42514;SDS011;28144;49.920;18.730;2023-12-28T07:14:47;47.90;;;21.17;;
42514;SDS011;28144;49.920;18.730;2023-12-28T07:17:13;52.53;;;19.13;;
42514;SDS011;28144;49.920;18.730;2023-12-28T07:19:42;45.27;;;18.90;;
42514;SDS011;28144;49.920;18.730;2023-12-28T07:22:09;31.52;;;17.23;;
42514;SDS011;28144;49.920;18.730;2023-12-28T07:24:34;41.30;;;18.60;;
42514;SDS011;28144;49.920;18.730;2023-12-28T07:27:00;35.30;;;16.37;;
42514;SDS011;28144;49.920;18.730;2023-12-28T07:29:25;43.33;;;20.13;;
42514;SDS011;28144;49.920;18.730;2023-12-28T07:31:52;33.13;;;15.77;;
42514;SDS011;28144;49.920;18.730;2023-12-28T07:34:18;33.13;;;15.53;;
42514;SDS011;28144;49.920;18.730;2023-12-28T07:36:44;40.23;;;17.00;;
42514;SDS011;28144;49.920;18.730;2023-12-28T07:39:10;39.27;;;18.83;;
42514;SDS011;28144;49.920;18.730;2023-12-28T07:41:36;31.60;;;16.20;;
42514;SDS011;28144;49.920;18.730;2023-12-28T07:44:01;30.67;;;15.33;;
42514;SDS011;28144;49.920;18.730;2023-12-28T07:46:27;30.00;;;15.00;;
42514;SDS011;28144;49.920;18.730;2023-12-28T07:48:53;41.37;;;16.27;;
42514;SDS011;28144;49.920;18.730;2023-12-28T07:51:19;34.67;;;16.30;;
42514;SDS011;28144;49.920;18.730;2023-12-28T07:53:44;33.10;;;16.73;;
42514;SDS011;28144;49.920;18.730;2023-12-28T07:56:10;28.00;;;15.17;;
42514;SDS011;28144;49.920;18.730;2023-12-28T07:58:36;30.75;;;14.70;;
42514;SDS011;28144;49.920;18.730;2023-12-28T08:01:03;36.05;;;15.30;;
42514;SDS011;28144;49.920;18.730;2023-12-28T08:03:28;32.93;;;15.70;;
42514;SDS011;28144;49.920;18.730;2023-12-28T08:05:54;31.17;;;15.40;;
42514;SDS011;28144;49.920;18.730;2023-12-28T08:08:20;33.73;;;16.30;;
42514;SDS011;28144;49.920;18.730;2023-12-28T08:10:46;36.77;;;15.00;;
42514;SDS011;28144;49.920;18.730;2023-12-28T08:13:11;25.33;;;14.93;;
42514;SDS011;28144;49.920;18.730;2023-12-28T08:15:37;27.53;;;15.23;;
42514;SDS011;28144;49.920;18.730;2023-12-28T08:18:03;21.50;;;12.87;;
42514;SDS011;28144;49.920;18.730;2023-12-28T08:20:29;21.63;;;11.90;;
42514;SDS011;28144;49.920;18.730;2023-12-28T08:22:55;26.30;;;12.33;;
42514;SDS011;28144;49.920;18.730;2023-12-28T08:25:20;24.07;;;11.67;;
42514;SDS011;28144;49.920;18.730;2023-12-28T08:30:13;20.23;;;9.67;;
42514;SDS011;28144;49.920;18.730;2023-12-28T08:32:39;22.77;;;11.20;;
42514;SDS011;28144;49.920;18.730;2023-12-28T08:35:05;19.23;;;11.23;;
42514;SDS011;28144;49.920;18.730;2023-12-28T08:37:32;21.00;;;10.23;;
42514;SDS011;28144;49.920;18.730;2023-12-28T08:39:58;20.70;;;10.90;;
42514;SDS011;28144;49.920;18.730;2023-12-28T08:42:24;20.80;;;11.67;;
42514;SDS011;28144;49.920;18.730;2023-12-28T08:44:50;22.60;;;10.15;;
42514;SDS011;28144;49.920;18.730;2023-12-28T08:47:15;15.00;;;9.60;;
42514;SDS011;28144;49.920;18.730;2023-12-28T08:49:41;20.80;;;10.33;;
42514;SDS011;28144;49.920;18.730;2023-12-28T08:52:07;18.53;;;8.50;;
42514;SDS011;28144;49.920;18.730;2023-12-28T08:54:33;20.30;;;10.10;;
42514;SDS011;28144;49.920;18.730;2023-12-28T08:56:58;29.53;;;10.50;;
42514;SDS011;28144;49.920;18.730;2023-12-28T08:59:24;20.17;;;11.97;;
42514;SDS011;28144;49.920;18.730;2023-12-28T09:01:52;18.23;;;10.57;;
42514;SDS011;28144;49.920;18.730;2023-12-28T09:04:19;18.63;;;10.37;;
42514;SDS011;28144;49.920;18.730;2023-12-28T09:06:44;16.00;;;9.43;;
42514;SDS011;28144;49.920;18.730;2023-12-28T09:09:10;16.60;;;8.43;;
42514;SDS011;28144;49.920;18.730;2023-12-28T09:11:36;18.53;;;9.00;;
42514;SDS011;28144;49.920;18.730;2023-12-28T09:14:02;20.60;;;10.57;;
42514;SDS011;28144;49.920;18.730;2023-12-28T09:16:27;22.40;;;10.13;;
42514;SDS011;28144;49.920;18.730;2023-12-28T09:18:54;22.42;;;10.95;;
42514;SDS011;28144;49.920;18.730;2023-12-28T09:21:19;24.07;;;11.77;;
42514;SDS011;28144;49.920;18.730;2023-12-28T09:23:46;17.13;;;9.75;;
42514;SDS011;28144;49.920;18.730;2023-12-28T09:26:11;15.23;;;9.30;;
42514;SDS011;28144;49.920;18.730;2023-12-28T09:28:37;17.03;;;10.00;;
42514;SDS011;28144;49.920;18.730;2023-12-28T09:31:03;17.47;;;9.23;;
42514;SDS011;28144;49.920;18.730;2023-12-28T09:33:29;19.05;;;9.30;;
42514;SDS011;28144;49.920;18.730;2023-12-28T09:35:55;20.43;;;10.03;;
42514;SDS011;28144;49.920;18.730;2023-12-28T09:38:21;21.93;;;9.47;;
42514;SDS011;28144;49.920;18.730;2023-12-28T09:40:47;19.08;;;10.27;;
42514;SDS011;28144;49.920;18.730;2023-12-28T09:43:37;22.60;;;13.03;;
42514;SDS011;28144;49.920;18.730;2023-12-28T09:46:08;19.90;;;11.50;;
42514;SDS011;28144;49.920;18.730;2023-12-28T09:48:37;17.60;;;10.17;;
42514;SDS011;28144;49.920;18.730;2023-12-28T09:51:04;17.27;;;9.23;;
42514;SDS011;28144;49.920;18.730;2023-12-28T09:53:30;19.13;;;11.23;;
42514;SDS011;28144;49.920;18.730;2023-12-28T09:55:55;22.90;;;10.60;;
42514;SDS011;28144;49.920;18.730;2023-12-28T09:58:21;18.93;;;10.63;;
42514;SDS011;28144;49.920;18.730;2023-12-28T10:00:48;21.07;;;11.27;;
42514;SDS011;28144;49.920;18.730;2023-12-28T10:03:15;19.47;;;11.03;;
42514;SDS011;28144;49.920;18.730;2023-12-28T10:05:41;16.75;;;9.52;;
42514;SDS011;28144;49.920;18.730;2023-12-28T10:08:07;18.77;;;10.25;;
42514;SDS011;28144;49.920;18.730;2023-12-28T10:10:33;15.27;;;9.90;;
42514;SDS011;28144;49.920;18.730;2023-12-28T10:13:00;19.33;;;9.95;;
42514;SDS011;28144;49.920;18.730;2023-12-28T10:15:25;19.20;;;10.73;;
42514;SDS011;28144;49.920;18.730;2023-12-28T10:17:52;16.53;;;10.03;;
42514;SDS011;28144;49.920;18.730;2023-12-28T10:20:17;17.30;;;10.07;;
42514;SDS011;28144;49.920;18.730;2023-12-28T10:22:43;19.30;;;10.30;;
42514;SDS011;28144;49.920;18.730;2023-12-28T10:25:09;15.23;;;9.70;;
42514;SDS011;28144;49.920;18.730;2023-12-28T10:27:41;21.67;;;11.23;;
42514;SDS011;28144;49.920;18.730;2023-12-28T10:30:09;15.90;;;9.20;;
42514;SDS011;28144;49.920;18.730;2023-12-28T10:35:04;16.67;;;8.30;;
42514;SDS011;28144;49.920;18.730;2023-12-28T10:37:31;19.30;;;8.05;;
42514;SDS011;28144;49.920;18.730;2023-12-28T10:39:57;19.70;;;8.60;;
42514;SDS011;28144;49.920;18.730;2023-12-28T10:44:59;14.83;;;8.03;;
42514;SDS011;28144;49.920;18.730;2023-12-28T10:47:28;15.63;;;8.70;;
42514;SDS011;28144;49.920;18.730;2023-12-28T10:49:57;13.17;;;7.50;;
42514;SDS011;28144;49.920;18.730;2023-12-28T10:52:27;14.43;;;7.03;;
42514;SDS011;28144;49.920;18.730;2023-12-28T10:55:00;14.70;;;7.50;;
42514;SDS011;28144;49.920;18.730;2023-12-28T10:57:44;13.70;;;7.50;;
42514;SDS011;28144;49.920;18.730;2023-12-28T11:00:16;11.77;;;6.83;;
42514;SDS011;28144;49.920;18.730;2023-12-28T11:02:48;14.53;;;6.77;;
42514;SDS011;28144;49.920;18.730;2023-12-28T11:05:21;11.17;;;7.10;;
42514;SDS011;28144;49.920;18.730;2023-12-28T11:07:47;15.43;;;7.13;;
42514;SDS011;28144;49.920;18.730;2023-12-28T11:10:13;12.90;;;7.20;;
42514;SDS011;28144;49.920;18.730;2023-12-28T11:12:39;15.48;;;6.80;;
42514;SDS011;28144;49.920;18.730;2023-12-28T11:15:05;13.80;;;6.47;;
42514;SDS011;28144;49.920;18.730;2023-12-28T11:17:33;15.57;;;8.17;;
42514;SDS011;28144;49.920;18.730;2023-12-28T11:20:01;18.53;;;7.10;;
42514;SDS011;28144;49.920;18.730;2023-12-28T11:22:30;11.07;;;5.83;;
42514;SDS011;28144;49.920;18.730;2023-12-28T11:24:56;12.55;;;6.72;;
42514;SDS011;28144;49.920;18.730;2023-12-28T11:27:22;14.02;;;6.13;;
42514;SDS011;28144;49.920;18.730;2023-12-28T11:29:48;13.52;;;6.13;;
42514;SDS011;28144;49.920;18.730;2023-12-28T11:32:14;12.18;;;5.70;;
42514;SDS011;28144;49.920;18.730;2023-12-28T11:34:40;13.47;;;6.43;;
42514;SDS011;28144;49.920;18.730;2023-12-28T11:37:12;13.17;;;5.40;;
42514;SDS011;28144;49.920;18.730;2023-12-28T11:39:43;13.37;;;5.47;;
42514;SDS011;28144;49.920;18.730;2023-12-28T11:42:10;9.98;;;5.57;;
42514;SDS011;28144;49.920;18.730;2023-12-28T11:44:40;9.95;;;5.10;;
42514;SDS011;28144;49.920;18.730;2023-12-28T11:47:16;8.27;;;5.20;;
42514;SDS011;28144;49.920;18.730;2023-12-28T11:52:29;8.50;;;4.47;;
42514;SDS011;28144;49.920;18.730;2023-12-28T11:54:55;9.17;;;5.33;;
42514;SDS011;28144;49.920;18.730;2023-12-28T11:57:22;10.23;;;5.28;;
42514;SDS011;28144;49.920;18.730;2023-12-28T11:59:55;14.07;;;5.18;;
42514;SDS011;28144;49.920;18.730;2023-12-28T12:02:22;12.23;;;5.80;;
42514;SDS011;28144;49.920;18.730;2023-12-28T12:04:47;11.10;;;5.07;;
42514;SDS011;28144;49.920;18.730;2023-12-28T12:07:13;13.90;;;4.78;;
42514;SDS011;28144;49.920;18.730;2023-12-28T12:09:39;8.60;;;5.10;;
42514;SDS011;28144;49.920;18.730;2023-12-28T12:12:06;9.77;;;4.60;;
42514;SDS011;28144;49.920;18.730;2023-12-28T12:16:57;12.18;;;4.68;;
42514;SDS011;28144;49.920;18.730;2023-12-28T12:19:26;9.48;;;4.15;;
42514;SDS011;28144;49.920;18.730;2023-12-28T12:21:52;10.35;;;4.40;;
42514;SDS011;28144;49.920;18.730;2023-12-28T12:24:18;9.40;;;3.83;;
42514;SDS011;28144;49.920;18.730;2023-12-28T12:26:47;6.28;;;3.53;;
42514;SDS011;28144;49.920;18.730;2023-12-28T12:29:14;9.65;;;3.88;;
42514;SDS011;28144;49.920;18.730;2023-12-28T12:31:40;9.80;;;3.63;;
42514;SDS011;28144;49.920;18.730;2023-12-28T12:34:07;9.27;;;3.42;;
42514;SDS011;28144;49.920;18.730;2023-12-28T12:36:34;6.97;;;3.53;;
42514;SDS011;28144;49.920;18.730;2023-12-28T12:39:00;5.93;;;3.17;;
42514;SDS011;28144;49.920;18.730;2023-12-28T12:41:26;8.37;;;3.23;;
42514;SDS011;28144;49.920;18.730;2023-12-28T12:43:52;6.83;;;3.03;;
42514;SDS011;28144;49.920;18.730;2023-12-28T12:46:18;6.18;;;2.88;;
42514;SDS011;28144;49.920;18.730;2023-12-28T12:48:53;7.27;;;3.90;;
42514;SDS011;28144;49.920;18.730;2023-12-28T12:53:46;7.30;;;3.67;;
42514;SDS011;28144;49.920;18.730;2023-12-28T12:56:12;5.47;;;3.33;;
42514;SDS011;28144;49.920;18.730;2023-12-28T12:58:38;7.90;;;3.92;;
42514;SDS011;28144;49.920;18.730;2023-12-28T13:01:04;6.00;;;3.67;;
42514;SDS011;28144;49.920;18.730;2023-12-28T13:03:30;10.10;;;4.00;;
42514;SDS011;28144;49.920;18.730;2023-12-28T13:05:56;6.63;;;3.43;;
42514;SDS011;28144;49.920;18.730;2023-12-28T13:08:22;5.28;;;3.08;;
42514;SDS011;28144;49.920;18.730;2023-12-28T13:10:48;5.03;;;2.50;;
42514;SDS011;28144;49.920;18.730;2023-12-28T13:13:15;4.80;;;2.90;;
42514;SDS011;28144;49.920;18.730;2023-12-28T13:15:41;5.13;;;2.72;;
42514;SDS011;28144;49.920;18.730;2023-12-28T13:18:06;5.20;;;2.90;;
42514;SDS011;28144;49.920;18.730;2023-12-28T13:20:32;4.45;;;2.78;;
42514;SDS011;28144;49.920;18.730;2023-12-28T13:22:58;4.10;;;2.40;;
42514;SDS011;28144;49.920;18.730;2023-12-28T13:25:24;8.07;;;2.97;;
42514;SDS011;28144;49.920;18.730;2023-12-28T13:27:49;5.57;;;2.73;;
42514;SDS011;28144;49.920;18.730;2023-12-28T13:30:15;3.90;;;3.00;;
42514;SDS011;28144;49.920;18.730;2023-12-28T13:32:41;4.60;;;3.27;;
42514;SDS011;28144;49.920;18.730;2023-12-28T13:35:07;6.67;;;3.03;;
42514;SDS011;28144;49.920;18.730;2023-12-28T13:37:32;7.87;;;3.53;;
42514;SDS011;28144;49.920;18.730;2023-12-28T13:39:58;9.30;;;3.30;;
42514;SDS011;28144;49.920;18.730;2023-12-28T13:42:24;6.30;;;3.40;;
42514;SDS011;28144;49.920;18.730;2023-12-28T13:44:50;7.33;;;3.27;;
42514;SDS011;28144;49.920;18.730;2023-12-28T13:47:15;5.20;;;3.20;;
42514;SDS011;28144;49.920;18.730;2023-12-28T13:49:41;8.30;;;3.70;;
42514;SDS011;28144;49.920;18.730;2023-12-28T13:52:06;7.60;;;3.60;;
42514;SDS011;28144;49.920;18.730;2023-12-28T13:54:33;7.10;;;3.80;;
42514;SDS011;28144;49.920;18.730;2023-12-28T13:56:58;5.70;;;3.20;;
42514;SDS011;28144;49.920;18.730;2023-12-28T13:59:26;10.10;;;3.83;;
42514;SDS011;28144;49.920;18.730;2023-12-28T14:01:52;8.53;;;4.80;;
42514;SDS011;28144;49.920;18.730;2023-12-28T14:04:17;16.87;;;4.67;;
42514;SDS011;28144;49.920;18.730;2023-12-28T14:06:43;9.97;;;4.20;;
42514;SDS011;28144;49.920;18.730;2023-12-28T14:09:09;9.20;;;4.97;;
42514;SDS011;28144;49.920;18.730;2023-12-28T14:11:34;15.67;;;6.93;;
42514;SDS011;28144;49.920;18.730;2023-12-28T14:14:00;10.17;;;5.60;;
42514;SDS011;28144;49.920;18.730;2023-12-28T14:16:26;13.43;;;6.27;;
42514;SDS011;28144;49.920;18.730;2023-12-28T14:18:52;12.07;;;6.97;;
42514;SDS011;28144;49.920;18.730;2023-12-28T14:21:18;13.70;;;6.47;;
42514;SDS011;28144;49.920;18.730;2023-12-28T14:23:44;13.93;;;6.80;;
42514;SDS011;28144;49.920;18.730;2023-12-28T14:26:11;10.43;;;5.83;;
42514;SDS011;28144;49.920;18.730;2023-12-28T14:28:42;16.80;;;7.13;;
42514;SDS011;28144;49.920;18.730;2023-12-28T14:31:09;16.75;;;7.72;;